Aérodrome :
LOGIN :

S'inscrire | Disclaimer

   EN    FR    IT 

 










Légende :    VFR   VFR Marginal   IFR   IFR Intensif   IFR Très Intensif
Visi : 
Plafond : 
>= 8 km
>= 3000ft
5 à 8 km
1000 à 3000 ft
1500m à 5 km
500 à 1000 ft
800 à 1500m
200 à 500 ft
< 800m
< 200 ft
Symboles :   Orages  Brouillard  Fortes neiges  Fortes précipitations  Vent > 20 kt
SIGMETs :   Divers  Orages  Givrage  Turbulence  Onde Orograph.  Cendres Volcan.







- Altitude de l'aérodrome : 364 ft
- Code IATA : FRA


EDDF - Frankfurt Int.

DERNIER METAR :
  • 100150Z 26013KT 9999 VCSH FEW025CB 05/03 Q1017 NOSIG

METARs EXPIRÉS :
  • 100120Z 23009KT 9999 -SHRA FEW025CB SCT040 05/03 Q1016 NOSIG
  • 100050Z 23009KT 9999 FEW025 05/04 Q1016 NOSIG
  • 100020Z 25010KT 9999 VCSH FEW025CB SCT038 05/04 Q1015 RESHRA NOSIG
  • 092350Z 25014KT 9999 SHRA FEW013 BKN025CB 06/04 Q1015 BECMG NSW
  • 092320Z 26010KT 9999 VCSH FEW030CB SCT049 06/03 Q1015 NOSIG

TAF TAF EDDF
Valide du 10 à 00h jusqu'au 11 à 06h UTC


092300Z 1000/1106 26012KT 9999 SCT035
PROB40
TEMPO 1009/1018 29015G25KT SHRA BKN020CB
BECMG 1019/1021 25007KT
Pas de NOTAMs connus pour ce terrain.



MET'MAP, la Météo Aéronautique d'un coup d'oeil ! - Copyright ORBIFLY Décembre 2007 - Disclaimer

ORBIFLY MET'MAP TEAM :

Programmation & Développement : Alexandra Zaïnal
Conception & Développement : Baudouin d'Aumeries
Co-Programmation & Développement : Marc-Olivier Méhu
Soutien technique & logistique : Manuel Goepfert

Contact : metmap@orbifly.com




SOURCES & CREDITS :

   NOAA